Terminal Aerodrome Forecast
Issued by NWS Twin Cities, MN

Home | Current Version | Previous Version | Text Only | Print | Product List | Glossary Off
Versions: 1 2 3 4 5 6 7 8 9 10 11 12 13 14 15 16 17 18

000
FTUS43 KMPX 161700 RRA
TAFSTC
TAF
KSTC 161744Z 1618/1718 07015G21KT 1 1/2SM -SN OVC012
      TEMPO 1618/1621 1/4SM SN FZFG VV005
     FM162200 04012G18KT 1 1/2SM -SN VV006
     FM170200 36012G18KT 4SM -SN OVC015
     FM170600 33011KT P6SM OVC020=

USA.gov is the U.S. government's official web portal to all federal, state and local government web resources and services.